Date,TemperatureHighF,TemperatureAvgF,TemperatureLowF,DewpointHighF,DewpointAvgF,DewpointLowF,HumidityHigh,HumidityAvg,HumidityLow,PressureMaxIn,PressureMinIn,WindSpeedMaxMPH,WindSpeedAvgMPH,GustSpeedMaxMPH,PrecipitationSumIn
2013-9-1,60.4,58.1,54.1,54.3,46.0,41.5,81,64,53,30.16,30.04,8,4,9,0.00
2013-9-2,74.1,65.9,60.3,70.0,60.9,50.0,91,84,68,30.10,30.04,7,3,10,0.00
2013-9-3,79.9,71.3,65.8,75.0,65.0,59.7,92,81,66,30.13,30.01,4,-14,6,0.00
2013-9-4,94.8,75.6,56.5,88.0,62.5,42.4,89,66,33,30.01,29.75,4,1,6,0.00
2013-9-5,77.5,64.9,57.4,72.7,59.1,49.5,92,82,65,29.75,29.63,6,2,10,0.00
2013-9-6,90.5,73.6,56.7,83.5,68.7,51.4,93,85,80,29.63,29.51,5,1,5,0.62
2013-9-7,92.8,72.4,48.9,85.8,66.9,46.4,92,83,74,29.75,29.51,4,1,7,0.08
2013-9-8,66.7,55.2,48.7,62.8,49.5,41.7,95,82,49,29.78,29.72,4,1,6,0.17
2013-9-9,90.3,78.4,67.6,83.7,72.7,63.7,87,83,81,29.78,29.75,2,0,3,0.08
2013-9-10,60.8,60.4,59.7,57.9,57.5,57.0,91,90,90,30.01,29.99,3,1,4,0.00
2013-9-11,96.8,81.1,60.8,89.4,75.4,57.9,90,83,79,30.01,29.87,4,0,6,0.25
2013-9-12,105.6,89.9,66.0,97.7,83.3,61.7,90,81,79,29.87,29.78,6,0,8,0.21
2013-9-13,95.9,65.0,53.6,88.7,59.8,47.1,93,84,67,29.87,29.75,7,2,8,0.04
2013-9-14,71.1,61.4,51.6,66.7,50.5,35.6,94,70,39,29.84,29.75,6,2,8,0.00
2013-9-15,93.6,60.8,49.3,86.4,54.4,36.0,93,80,48,29.81,29.19,8,3,13,0.54
2013-9-16,54.0,51.2,47.7,52.2,45.7,37.4,95,82,61,29.31,29.22,9,5,13,0.09
2013-9-17,74.8,56.1,51.3,69.6,51.9,44.2,95,86,75,29.31,29.16,9,3,13,0.08
2013-9-18,91.9,70.3,53.1,84.9,64.4,44.8,92,82,66,29.57,29.22,9,2,11,0.20
2013-9-19,88.3,59.8,51.1,81.7,55.3,46.6,93,85,76,29.60,29.36,8,3,10,0.21
2013-9-20,77.5,59.1,53.2,72.3,51.9,42.6,92,78,55,29.93,29.60,5,2,8,0.00
2013-9-21,72.1,61.0,52.2,68.0,57.2,46.8,92,87,79,30.01,29.90,5,1,6,0.00
2013-9-22,88.7,73.1,63.0,82.4,68.0,59.9,92,84,74,30.13,30.01,5,1,8,0.00
2013-9-23,97.5,78.2,67.5,90.3,73.0,63.9,88,84,80,30.10,29.87,2,0,4,0.00
2013-9-24,75.2,69.3,63.5,70.7,64.9,60.8,91,86,76,29.90,29.69,4,0,4,0.00
2013-9-25,88.2,71.9,56.8,82.0,67.1,52.3,90,85,68,29.75,29.63,5,0,6,0.00
2013-9-26,63.0,57.6,53.8,52.9,50.5,48.0,86,78,63,29.84,29.75,4,1,7,0.00
2013-9-27,68.4,60.8,55.4,57.9,50.2,39.7,93,71,36,29.84,29.72,4,1,5,0.00
2013-9-28,66.7,58.7,53.6,56.5,51.8,44.6,94,80,45,29.72,29.57,4,1,7,0.04